sensor_id;sensor_type;location;lat;lon;timestamp;P1;durP1;ratioP1;P2;durP2;ratioP2
61696;SDS011;47610;52.252;20.922;2022-12-18T00:03:26;22.40;;;11.90;;
61696;SDS011;47610;52.252;20.922;2022-12-18T00:08:50;22.30;;;9.20;;
61696;SDS011;47610;52.252;20.922;2022-12-18T00:14:14;20.40;;;11.30;;
61696;SDS011;47610;52.252;20.922;2022-12-18T00:19:36;17.80;;;8.90;;
61696;SDS011;47610;52.252;20.922;2022-12-18T00:24:58;19.70;;;10.40;;
61696;SDS011;47610;52.252;20.922;2022-12-18T00:30:21;22.60;;;10.90;;
61696;SDS011;47610;52.252;20.922;2022-12-18T00:35:47;20.40;;;10.40;;
61696;SDS011;47610;52.252;20.922;2022-12-18T00:41:09;22.10;;;10.80;;
61696;SDS011;47610;52.252;20.922;2022-12-18T00:46:35;18.10;;;9.60;;
61696;SDS011;47610;52.252;20.922;2022-12-18T00:52:00;24.90;;;11.30;;
61696;SDS011;47610;52.252;20.922;2022-12-18T00:57:22;23.70;;;11.40;;
61696;SDS011;47610;52.252;20.922;2022-12-18T01:02:45;21.20;;;10.90;;
61696;SDS011;47610;52.252;20.922;2022-12-18T01:08:07;27.90;;;12.30;;
61696;SDS011;47610;52.252;20.922;2022-12-18T01:13:30;21.40;;;9.80;;
61696;SDS011;47610;52.252;20.922;2022-12-18T01:18:54;19.40;;;10.10;;
61696;SDS011;47610;52.252;20.922;2022-12-18T01:34:53;27.90;;;12.80;;
61696;SDS011;47610;52.252;20.922;2022-12-18T01:40:14;21.00;;;10.70;;
61696;SDS011;47610;52.252;20.922;2022-12-18T01:45:37;31.00;;;12.90;;
61696;SDS011;47610;52.252;20.922;2022-12-18T01:50:58;22.00;;;11.40;;
61696;SDS011;47610;52.252;20.922;2022-12-18T01:56:20;26.30;;;12.00;;
61696;SDS011;47610;52.252;20.922;2022-12-18T02:01:46;26.70;;;11.20;;
61696;SDS011;47610;52.252;20.922;2022-12-18T02:07:08;25.20;;;10.70;;
61696;SDS011;47610;52.252;20.922;2022-12-18T02:12:38;28.10;;;11.50;;
61696;SDS011;47610;52.252;20.922;2022-12-18T02:18:08;31.00;;;12.30;;
61696;SDS011;47610;52.252;20.922;2022-12-18T02:23:41;25.70;;;11.50;;
61696;SDS011;47610;52.252;20.922;2022-12-18T02:29:13;23.70;;;11.10;;
61696;SDS011;47610;52.252;20.922;2022-12-18T02:34:37;25.40;;;11.20;;
61696;SDS011;47610;52.252;20.922;2022-12-18T02:39:59;26.20;;;11.20;;
61696;SDS011;47610;52.252;20.922;2022-12-18T02:45:23;29.10;;;13.10;;
61696;SDS011;47610;52.252;20.922;2022-12-18T02:50:48;30.90;;;12.60;;
61696;SDS011;47610;52.252;20.922;2022-12-18T02:56:20;24.50;;;11.20;;
61696;SDS011;47610;52.252;20.922;2022-12-18T03:01:51;21.60;;;11.00;;
61696;SDS011;47610;52.252;20.922;2022-12-18T03:07:18;30.90;;;13.20;;
61696;SDS011;47610;52.252;20.922;2022-12-18T03:12:46;22.50;;;11.10;;
61696;SDS011;47610;52.252;20.922;2022-12-18T03:26:22;30.60;;;12.80;;
61696;SDS011;47610;52.252;20.922;2022-12-18T03:31:47;29.70;;;12.80;;
61696;SDS011;47610;52.252;20.922;2022-12-18T03:37:15;29.50;;;11.20;;
61696;SDS011;47610;52.252;20.922;2022-12-18T03:42:40;23.20;;;11.00;;
61696;SDS011;47610;52.252;20.922;2022-12-18T03:48:12;24.30;;;10.90;;
61696;SDS011;47610;52.252;20.922;2022-12-18T03:53:41;26.30;;;12.00;;
61696;SDS011;47610;52.252;20.922;2022-12-18T03:59:09;29.10;;;13.10;;
61696;SDS011;47610;52.252;20.922;2022-12-18T04:04:36;28.80;;;12.00;;
61696;SDS011;47610;52.252;20.922;2022-12-18T04:10:02;27.70;;;10.40;;
61696;SDS011;47610;52.252;20.922;2022-12-18T04:15:29;19.80;;;8.90;;
61696;SDS011;47610;52.252;20.922;2022-12-18T04:20:52;26.20;;;11.60;;
61696;SDS011;47610;52.252;20.922;2022-12-18T04:26:16;24.00;;;9.70;;
61696;SDS011;47610;52.252;20.922;2022-12-18T04:31:40;21.70;;;10.50;;
61696;SDS011;47610;52.252;20.922;2022-12-18T04:42:27;19.40;;;8.10;;
61696;SDS011;47610;52.252;20.922;2022-12-18T04:47:49;20.20;;;9.20;;
61696;SDS011;47610;52.252;20.922;2022-12-18T04:53:12;25.80;;;10.20;;
61696;SDS011;47610;52.252;20.922;2022-12-18T04:58:35;21.40;;;9.20;;
61696;SDS011;47610;52.252;20.922;2022-12-18T05:03:59;22.50;;;8.80;;
61696;SDS011;47610;52.252;20.922;2022-12-18T05:09:21;22.70;;;9.60;;
61696;SDS011;47610;52.252;20.922;2022-12-18T05:14:43;17.70;;;8.40;;
61696;SDS011;47610;52.252;20.922;2022-12-18T05:20:10;24.90;;;11.50;;
61696;SDS011;47610;52.252;20.922;2022-12-18T05:25:33;21.90;;;10.20;;
61696;SDS011;47610;52.252;20.922;2022-12-18T05:30:56;33.00;;;11.70;;
61696;SDS011;47610;52.252;20.922;2022-12-18T05:47:01;28.60;;;11.20;;
61696;SDS011;47610;52.252;20.922;2022-12-18T05:52:26;24.00;;;11.20;;
61696;SDS011;47610;52.252;20.922;2022-12-18T05:57:48;25.60;;;11.10;;
61696;SDS011;47610;52.252;20.922;2022-12-18T06:03:11;34.40;;;12.80;;
61696;SDS011;47610;52.252;20.922;2022-12-18T06:08:34;26.30;;;12.30;;
61696;SDS011;47610;52.252;20.922;2022-12-18T06:13:57;31.50;;;12.90;;
61696;SDS011;47610;52.252;20.922;2022-12-18T06:19:21;29.30;;;12.30;;
61696;SDS011;47610;52.252;20.922;2022-12-18T06:24:44;29.20;;;12.00;;
61696;SDS011;47610;52.252;20.922;2022-12-18T06:30:13;26.10;;;11.00;;
61696;SDS011;47610;52.252;20.922;2022-12-18T06:35:37;31.30;;;12.60;;
61696;SDS011;47610;52.252;20.922;2022-12-18T06:41:00;29.00;;;10.60;;
61696;SDS011;47610;52.252;20.922;2022-12-18T06:46:26;26.50;;;10.80;;
61696;SDS011;47610;52.252;20.922;2022-12-18T06:51:50;32.80;;;12.80;;
61696;SDS011;47610;52.252;20.922;2022-12-18T06:57:12;32.80;;;13.00;;
61696;SDS011;47610;52.252;20.922;2022-12-18T07:02:35;29.20;;;12.00;;
61696;SDS011;47610;52.252;20.922;2022-12-18T07:07:57;25.80;;;10.60;;
61696;SDS011;47610;52.252;20.922;2022-12-18T07:14:52;31.50;;;13.10;;
61696;SDS011;47610;52.252;20.922;2022-12-18T07:20:16;28.40;;;11.40;;
61696;SDS011;47610;52.252;20.922;2022-12-18T07:25:39;26.70;;;11.60;;
61696;SDS011;47610;52.252;20.922;2022-12-18T07:31:03;27.00;;;11.20;;
61696;SDS011;47610;52.252;20.922;2022-12-18T07:36:29;34.80;;;12.80;;
61696;SDS011;47610;52.252;20.922;2022-12-18T07:41:52;31.90;;;13.00;;
61696;SDS011;47610;52.252;20.922;2022-12-18T07:47:15;27.60;;;11.40;;
61696;SDS011;47610;52.252;20.922;2022-12-18T07:52:38;33.50;;;12.50;;
61696;SDS011;47610;52.252;20.922;2022-12-18T07:58:02;30.70;;;12.30;;
61696;SDS011;47610;52.252;20.922;2022-12-18T08:08:46;27.80;;;11.10;;
61696;SDS011;47610;52.252;20.922;2022-12-18T08:14:08;34.30;;;12.70;;
61696;SDS011;47610;52.252;20.922;2022-12-18T08:19:31;30.60;;;13.00;;
61696;SDS011;47610;52.252;20.922;2022-12-18T08:24:54;28.00;;;12.00;;
61696;SDS011;47610;52.252;20.922;2022-12-18T08:30:16;24.40;;;10.90;;
61696;SDS011;47610;52.252;20.922;2022-12-18T08:35:39;33.70;;;12.90;;
61696;SDS011;47610;52.252;20.922;2022-12-18T08:41:03;30.50;;;12.90;;
61696;SDS011;47610;52.252;20.922;2022-12-18T08:46:32;35.00;;;14.10;;
61696;SDS011;47610;52.252;20.922;2022-12-18T08:51:57;33.10;;;13.30;;
61696;SDS011;47610;52.252;20.922;2022-12-18T08:57:19;28.90;;;12.30;;
61696;SDS011;47610;52.252;20.922;2022-12-18T09:02:42;31.70;;;13.00;;
61696;SDS011;47610;52.252;20.922;2022-12-18T09:08:05;27.90;;;11.60;;
61696;SDS011;47610;52.252;20.922;2022-12-18T09:13:30;33.30;;;13.30;;
61696;SDS011;47610;52.252;20.922;2022-12-18T09:18:53;26.40;;;11.30;;
61696;SDS011;47610;52.252;20.922;2022-12-18T09:34:13;34.50;;;13.70;;
61696;SDS011;47610;52.252;20.922;2022-12-18T09:39:37;36.20;;;14.80;;
61696;SDS011;47610;52.252;20.922;2022-12-18T09:44:59;39.40;;;16.30;;
61696;SDS011;47610;52.252;20.922;2022-12-18T09:50:26;50.60;;;24.70;;
61696;SDS011;47610;52.252;20.922;2022-12-18T09:55:53;52.60;;;20.30;;
61696;SDS011;47610;52.252;20.922;2022-12-18T10:01:20;38.40;;;18.40;;
61696;SDS011;47610;52.252;20.922;2022-12-18T10:06:44;36.90;;;15.80;;
61696;SDS011;47610;52.252;20.922;2022-12-18T10:12:16;40.30;;;16.60;;
61696;SDS011;47610;52.252;20.922;2022-12-18T10:17:48;37.60;;;17.00;;
61696;SDS011;47610;52.252;20.922;2022-12-18T10:23:19;40.50;;;17.30;;
61696;SDS011;47610;52.252;20.922;2022-12-18T10:28:50;36.00;;;13.20;;
61696;SDS011;47610;52.252;20.922;2022-12-18T10:34:15;32.60;;;14.80;;
61696;SDS011;47610;52.252;20.922;2022-12-18T10:39:37;46.40;;;19.70;;
61696;SDS011;47610;52.252;20.922;2022-12-18T10:45:03;47.70;;;20.40;;
61696;SDS011;47610;52.252;20.922;2022-12-18T10:50:33;50.50;;;18.20;;
61696;SDS011;47610;52.252;20.922;2022-12-18T10:55:57;46.10;;;19.20;;
61696;SDS011;47610;52.252;20.922;2022-12-18T11:01:20;41.30;;;16.60;;
61696;SDS011;47610;52.252;20.922;2022-12-18T11:06:54;52.10;;;19.70;;
61696;SDS011;47610;52.252;20.922;2022-12-18T11:12:22;48.40;;;19.00;;
61696;SDS011;47610;52.252;20.922;2022-12-18T11:17:44;43.10;;;17.80;;
61696;SDS011;47610;52.252;20.922;2022-12-18T11:23:13;48.90;;;18.50;;
61696;SDS011;47610;52.252;20.922;2022-12-18T11:28:40;48.10;;;20.00;;
61696;SDS011;47610;52.252;20.922;2022-12-18T11:34:06;45.70;;;19.20;;
61696;SDS011;47610;52.252;20.922;2022-12-18T11:39:36;38.50;;;17.40;;
61696;SDS011;47610;52.252;20.922;2022-12-18T12:01:39;40.50;;;17.70;;
61696;SDS011;47610;52.252;20.922;2022-12-18T12:07:13;41.60;;;17.20;;
61696;SDS011;47610;52.252;20.922;2022-12-18T12:12:49;43.70;;;19.30;;
61696;SDS011;47610;52.252;20.922;2022-12-18T12:18:28;40.20;;;18.00;;
61696;SDS011;47610;52.252;20.922;2022-12-18T12:23:57;40.60;;;17.50;;
61696;SDS011;47610;52.252;20.922;2022-12-18T12:29:33;43.40;;;19.50;;
61696;SDS011;47610;52.252;20.922;2022-12-18T12:35:09;43.90;;;17.10;;
61696;SDS011;47610;52.252;20.922;2022-12-18T12:40:43;42.30;;;17.70;;
61696;SDS011;47610;52.252;20.922;2022-12-18T12:46:10;40.20;;;16.70;;
61696;SDS011;47610;52.252;20.922;2022-12-18T12:51:35;39.30;;;17.10;;
61696;SDS011;47610;52.252;20.922;2022-12-18T12:57:02;40.20;;;16.90;;
61696;SDS011;47610;52.252;20.922;2022-12-18T13:02:31;39.70;;;16.10;;
61696;SDS011;47610;52.252;20.922;2022-12-18T13:08:01;48.00;;;18.70;;
61696;SDS011;47610;52.252;20.922;2022-12-18T13:13:27;47.00;;;18.50;;
61696;SDS011;47610;52.252;20.922;2022-12-18T13:19:18;49.20;;;22.00;;
61696;SDS011;47610;52.252;20.922;2022-12-18T13:24:46;45.90;;;19.10;;
61696;SDS011;47610;52.252;20.922;2022-12-18T13:36:14;36.60;;;15.80;;
61696;SDS011;47610;52.252;20.922;2022-12-18T13:41:46;39.90;;;15.30;;
61696;SDS011;47610;52.252;20.922;2022-12-18T13:47:24;39.60;;;16.90;;
61696;SDS011;47610;52.252;20.922;2022-12-18T13:52:52;41.60;;;16.10;;
61696;SDS011;47610;52.252;20.922;2022-12-18T13:58:16;35.30;;;16.10;;
61696;SDS011;47610;52.252;20.922;2022-12-18T14:03:39;39.50;;;15.50;;
61696;SDS011;47610;52.252;20.922;2022-12-18T14:19:43;65.70;;;25.70;;
61696;SDS011;47610;52.252;20.922;2022-12-18T14:25:16;52.30;;;21.00;;
61696;SDS011;47610;52.252;20.922;2022-12-18T14:30:41;45.00;;;17.40;;
61696;SDS011;47610;52.252;20.922;2022-12-18T14:36:04;44.90;;;17.50;;
61696;SDS011;47610;52.252;20.922;2022-12-18T14:41:35;42.10;;;16.10;;
61696;SDS011;47610;52.252;20.922;2022-12-18T14:46:57;37.30;;;15.70;;
61696;SDS011;47610;52.252;20.922;2022-12-18T14:52:21;39.40;;;15.50;;
61696;SDS011;47610;52.252;20.922;2022-12-18T14:57:47;38.00;;;14.70;;
61696;SDS011;47610;52.252;20.922;2022-12-18T15:08:37;32.70;;;14.30;;
61696;SDS011;47610;52.252;20.922;2022-12-18T15:14:03;38.40;;;15.90;;
61696;SDS011;47610;52.252;20.922;2022-12-18T15:19:51;40.00;;;16.60;;
61696;SDS011;47610;52.252;20.922;2022-12-18T15:25:24;43.70;;;17.90;;
61696;SDS011;47610;52.252;20.922;2022-12-18T15:31:02;37.30;;;16.20;;
61696;SDS011;47610;52.252;20.922;2022-12-18T15:36:26;42.00;;;18.40;;
61696;SDS011;47610;52.252;20.922;2022-12-18T15:41:48;39.00;;;17.50;;
61696;SDS011;47610;52.252;20.922;2022-12-18T15:47:11;37.80;;;16.80;;
61696;SDS011;47610;52.252;20.922;2022-12-18T15:52:35;39.10;;;17.40;;
61696;SDS011;47610;52.252;20.922;2022-12-18T15:58:03;49.10;;;24.20;;
61696;SDS011;47610;52.252;20.922;2022-12-18T16:03:26;53.30;;;24.30;;
61696;SDS011;47610;52.252;20.922;2022-12-18T16:08:48;40.80;;;19.20;;
61696;SDS011;47610;52.252;20.922;2022-12-18T16:14:15;43.00;;;17.90;;
61696;SDS011;47610;52.252;20.922;2022-12-18T16:19:40;40.80;;;16.80;;
61696;SDS011;47610;52.252;20.922;2022-12-18T16:35:59;41.20;;;16.20;;
61696;SDS011;47610;52.252;20.922;2022-12-18T16:41:21;39.70;;;16.10;;
61696;SDS011;47610;52.252;20.922;2022-12-18T16:46:44;31.80;;;15.20;;
61696;SDS011;47610;52.252;20.922;2022-12-18T16:52:07;48.60;;;19.10;;
61696;SDS011;47610;52.252;20.922;2022-12-18T16:57:29;40.80;;;18.20;;
61696;SDS011;47610;52.252;20.922;2022-12-18T17:02:52;39.10;;;15.70;;
61696;SDS011;47610;52.252;20.922;2022-12-18T17:08:14;46.00;;;18.70;;
61696;SDS011;47610;52.252;20.922;2022-12-18T17:13:37;29.00;;;12.50;;
61696;SDS011;47610;52.252;20.922;2022-12-18T17:19:00;44.70;;;18.80;;
61696;SDS011;47610;52.252;20.922;2022-12-18T17:24:22;39.70;;;17.20;;
61696;SDS011;47610;52.252;20.922;2022-12-18T17:29:44;38.10;;;15.50;;
61696;SDS011;47610;52.252;20.922;2022-12-18T17:35:07;41.90;;;15.40;;
61696;SDS011;47610;52.252;20.922;2022-12-18T17:40:29;39.30;;;14.00;;
61696;SDS011;47610;52.252;20.922;2022-12-18T17:45:53;37.10;;;16.70;;
61696;SDS011;47610;52.252;20.922;2022-12-18T17:51:16;39.90;;;16.20;;
61696;SDS011;47610;52.252;20.922;2022-12-18T17:56:39;38.00;;;16.40;;
61696;SDS011;47610;52.252;20.922;2022-12-18T18:02:01;31.40;;;13.30;;
61696;SDS011;47610;52.252;20.922;2022-12-18T18:07:24;40.40;;;15.60;;
61696;SDS011;47610;52.252;20.922;2022-12-18T18:12:46;39.80;;;15.60;;
61696;SDS011;47610;52.252;20.922;2022-12-18T18:18:08;39.70;;;17.30;;
61696;SDS011;47610;52.252;20.922;2022-12-18T18:23:31;36.60;;;14.50;;
61696;SDS011;47610;52.252;20.922;2022-12-18T18:28:55;46.10;;;17.90;;
61696;SDS011;47610;52.252;20.922;2022-12-18T18:34:19;40.80;;;15.40;;
61696;SDS011;47610;52.252;20.922;2022-12-18T18:39:42;40.10;;;14.60;;
61696;SDS011;47610;52.252;20.922;2022-12-18T18:59:28;51.10;;;19.10;;
61696;SDS011;47610;52.252;20.922;2022-12-18T19:04:50;38.80;;;16.00;;
61696;SDS011;47610;52.252;20.922;2022-12-18T19:10:14;44.20;;;15.60;;
61696;SDS011;47610;52.252;20.922;2022-12-18T19:15:37;35.70;;;14.30;;
61696;SDS011;47610;52.252;20.922;2022-12-18T19:21:01;52.00;;;19.30;;
61696;SDS011;47610;52.252;20.922;2022-12-18T19:26:25;37.20;;;17.00;;
61696;SDS011;47610;52.252;20.922;2022-12-18T19:31:47;41.40;;;18.20;;
61696;SDS011;47610;52.252;20.922;2022-12-18T19:37:10;39.40;;;15.40;;
61696;SDS011;47610;52.252;20.922;2022-12-18T19:42:33;64.10;;;21.90;;
61696;SDS011;47610;52.252;20.922;2022-12-18T19:47:56;41.00;;;15.40;;
61696;SDS011;47610;52.252;20.922;2022-12-18T19:53:18;36.30;;;14.70;;
61696;SDS011;47610;52.252;20.922;2022-12-18T19:58:40;40.60;;;15.50;;
61696;SDS011;47610;52.252;20.922;2022-12-18T20:04:03;38.60;;;15.40;;
61696;SDS011;47610;52.252;20.922;2022-12-18T20:09:25;35.50;;;13.10;;
61696;SDS011;47610;52.252;20.922;2022-12-18T20:14:47;38.30;;;14.60;;
61696;SDS011;47610;52.252;20.922;2022-12-18T20:20:12;32.00;;;12.80;;
61696;SDS011;47610;52.252;20.922;2022-12-18T20:25:38;35.10;;;14.00;;
61696;SDS011;47610;52.252;20.922;2022-12-18T20:31:00;28.30;;;12.40;;
61696;SDS011;47610;52.252;20.922;2022-12-18T20:36:24;29.50;;;12.60;;
61696;SDS011;47610;52.252;20.922;2022-12-18T20:41:47;29.30;;;12.80;;
61696;SDS011;47610;52.252;20.922;2022-12-18T20:47:10;33.10;;;12.10;;
61696;SDS011;47610;52.252;20.922;2022-12-18T20:52:33;31.30;;;13.60;;
61696;SDS011;47610;52.252;20.922;2022-12-18T20:57:57;30.10;;;9.70;;
61696;SDS011;47610;52.252;20.922;2022-12-18T21:03:22;31.60;;;12.60;;
61696;SDS011;47610;52.252;20.922;2022-12-18T21:16:10;40.40;;;14.30;;
61696;SDS011;47610;52.252;20.922;2022-12-18T21:21:32;34.70;;;12.90;;
61696;SDS011;47610;52.252;20.922;2022-12-18T21:26:54;36.50;;;13.60;;
61696;SDS011;47610;52.252;20.922;2022-12-18T21:32:17;32.30;;;13.90;;
61696;SDS011;47610;52.252;20.922;2022-12-18T21:37:41;32.70;;;12.80;;
61696;SDS011;47610;52.252;20.922;2022-12-18T21:43:03;27.40;;;11.70;;
61696;SDS011;47610;52.252;20.922;2022-12-18T21:48:25;30.00;;;11.20;;
61696;SDS011;47610;52.252;20.922;2022-12-18T21:53:47;25.60;;;11.30;;
61696;SDS011;47610;52.252;20.922;2022-12-18T21:59:10;31.70;;;12.70;;
61696;SDS011;47610;52.252;20.922;2022-12-18T22:04:34;29.30;;;13.10;;
61696;SDS011;47610;52.252;20.922;2022-12-18T22:09:57;55.00;;;27.20;;
61696;SDS011;47610;52.252;20.922;2022-12-18T22:15:19;29.10;;;12.10;;
61696;SDS011;47610;52.252;20.922;2022-12-18T22:20:41;32.10;;;13.80;;
61696;SDS011;47610;52.252;20.922;2022-12-18T22:26:03;29.80;;;11.40;;
61696;SDS011;47610;52.252;20.922;2022-12-18T22:31:25;27.60;;;12.70;;
61696;SDS011;47610;52.252;20.922;2022-12-18T22:36:47;32.90;;;11.90;;
61696;SDS011;47610;52.252;20.922;2022-12-18T22:42:09;29.10;;;11.60;;
61696;SDS011;47610;52.252;20.922;2022-12-18T22:47:31;38.10;;;14.60;;
61696;SDS011;47610;52.252;20.922;2022-12-18T22:52:53;30.70;;;12.20;;
61696;SDS011;47610;52.252;20.922;2022-12-18T22:58:15;30.20;;;12.00;;
61696;SDS011;47610;52.252;20.922;2022-12-18T23:03:37;30.10;;;13.50;;
61696;SDS011;47610;52.252;20.922;2022-12-18T23:08:59;26.00;;;11.00;;
61696;SDS011;47610;52.252;20.922;2022-12-18T23:14:21;31.80;;;13.80;;
61696;SDS011;47610;52.252;20.922;2022-12-18T23:19:43;24.90;;;9.60;;
61696;SDS011;47610;52.252;20.922;2022-12-18T23:43:28;32.30;;;11.90;;
61696;SDS011;47610;52.252;20.922;2022-12-18T23:48:50;25.00;;;9.70;;
61696;SDS011;47610;52.252;20.922;2022-12-18T23:54:13;23.40;;;9.70;;
61696;SDS011;47610;52.252;20.922;2022-12-18T23:59:35;25.30;;;8.90;;
